Terminal Aerodrome Forecast
Issued by NWS Binghamton, NY

Home | Current Version | Previous Version | Text Only | Print | Product List | Glossary On
Versions: 1 2 3 4 5 6 7 8 9 10 11 12 13 14 15 16 17 18
000
FTUS41 KBGM 060531
TAFSYR
TAF
KSYR 060531Z 0606/0706 35004KT P6SM BKN050 OVC120
     FM061500 01007KT P6SM BKN120
     FM062100 04008KT P6SM -SHRA OVC070
     FM070400 00000KT P6SM -SHRA OVC030=

USA.gov is the U.S. government's official web portal to all federal, state and local government web resources and services.